Terminal Aerodrome Forecast
Issued by NWS Goodland, KS

Home | Current Version | Previous Version | Text Only | Print | Product List | Glossary On
Versions: 1 2 3 4 5 6 7 8 9 10 11 12 13 14 15 16 17 18 19 20 21 22 23 24 25 26
668
FTUS43 KGLD 260222 AAA
TAFGLD
TAF AMD
KGLD 260222Z 2602/2624 04011KT P6SM SCT250
      TEMPO 2602/2604 02020G35KT
     FM260900 03006KT P6SM SCT010 BKN030
     FM261100 02007KT 3SM BR SCT003 BKN010
     FM261400 02011KT P6SM BKN030
     FM261700 05012G19KT P6SM VCSH SCT070 BKN150=

USA.gov is the U.S. government's official web portal to all federal, state and local government web resources and services.